createdAt,value
2022-08-09T00:00:02.852Z,1021.6
2022-08-09T00:01:12.030Z,1021.6
2022-08-09T00:02:21.202Z,1021.6
2022-08-09T00:03:30.381Z,1021.6
2022-08-09T00:04:39.538Z,1021.5
2022-08-09T00:05:48.718Z,1021.6
2022-08-09T00:06:57.900Z,1021.5
2022-08-09T00:08:06.083Z,1021.5
2022-08-09T00:09:15.253Z,1021.5
2022-08-09T00:10:24.424Z,1021.5
2022-08-09T00:11:33.607Z,1021.5
2022-08-09T00:12:42.762Z,1021.5
2022-08-09T00:13:51.946Z,1021.6
2022-08-09T00:15:01.116Z,1021.5
2022-08-09T00:16:10.283Z,1021.5
2022-08-09T00:17:19.464Z,1021.5
2022-08-09T00:18:28.644Z,1021.5
2022-08-09T00:19:37.801Z,1021.6
2022-08-09T00:20:46.967Z,1021.5
2022-08-09T00:21:56.159Z,1021.5
2022-08-09T00:23:05.351Z,1021.5
2022-08-09T00:24:13.515Z,1021.5
2022-08-09T00:25:22.680Z,1021.5
2022-08-09T00:26:31.852Z,1021.6
2022-08-09T00:27:41.037Z,1021.5
2022-08-09T00:28:50.206Z,1021.6
2022-08-09T00:29:59.367Z,1021.6
2022-08-09T00:31:08.535Z,1021.7
2022-08-09T00:32:17.728Z,1021.6
2022-08-09T00:33:26.883Z,1021.6
2022-08-09T00:34:36.064Z,1021.6
2022-08-09T00:35:45.236Z,1021.7
2022-08-09T00:36:54.400Z,1021.7
2022-08-09T00:38:03.595Z,1021.7
2022-08-09T00:39:11.765Z,1021.6
2022-08-09T00:40:20.938Z,1021.7
2022-08-09T00:41:30.123Z,1021.7
2022-08-09T00:42:39.288Z,1021.7
2022-08-09T00:44:07.836Z,1021.7
2022-08-09T00:44:57.641Z,1021.7
2022-08-09T00:46:06.807Z,1021.6
2022-08-09T00:47:15.982Z,1021.7
2022-08-09T00:48:25.154Z,1021.7
2022-08-09T00:49:34.332Z,1021.6
2022-08-09T00:50:43.505Z,1021.6
2022-08-09T00:51:52.663Z,1021.6
2022-08-09T00:53:01.850Z,1021.6
2022-08-09T00:54:10.021Z,1021.6
2022-08-09T00:55:19.205Z,1021.6
2022-08-09T00:56:28.380Z,1021.6
2022-08-09T00:57:37.542Z,1021.6
2022-08-09T00:58:46.717Z,1021.6
2022-08-09T00:59:55.885Z,1021.7
2022-08-09T01:01:05.057Z,1021.6
2022-08-09T01:02:14.248Z,1021.5
2022-08-09T01:03:23.407Z,1021.6
2022-08-09T01:04:32.578Z,1021.5
2022-08-09T01:05:41.764Z,1021.5
2022-08-09T01:06:50.918Z,1021.6
2022-08-09T01:08:00.095Z,1021.5
2022-08-09T01:10:17.452Z,1021.5
2022-08-09T01:11:26.626Z,1021.5
2022-08-09T01:12:35.815Z,1021.5
2022-08-09T01:13:44.971Z,1021.5
2022-08-09T01:14:54.154Z,1021.5
2022-08-09T01:16:03.312Z,1021.4
2022-08-09T01:17:12.500Z,1021.5
2022-08-09T01:18:21.663Z,1021.5
2022-08-09T01:20:40.018Z,1021.4
2022-08-09T01:21:49.180Z,1021.5
2022-08-09T01:22:58.357Z,1021.5
2022-08-09T01:24:06.544Z,1021.5
2022-08-09T01:25:15.722Z,1021.5
2022-08-09T01:26:24.911Z,1021.5
2022-08-09T01:27:34.069Z,1021.6
2022-08-09T01:28:43.237Z,1021.5
2022-08-09T01:29:52.406Z,1021.5
2022-08-09T01:31:01.573Z,1021.5
2022-08-09T01:32:10.750Z,1021.5
2022-08-09T01:33:19.914Z,1021.6
2022-08-09T01:34:29.114Z,1021.6
2022-08-09T01:35:38.292Z,1021.6
2022-08-09T01:36:47.435Z,1021.6
2022-08-09T01:37:56.608Z,1021.6
2022-08-09T01:39:04.796Z,1021.6
2022-08-09T01:40:13.987Z,1021.6
2022-08-09T01:41:23.145Z,1021.6
2022-08-09T01:42:32.313Z,1021.6
2022-08-09T01:43:41.495Z,1021.6
2022-08-09T01:44:50.669Z,1021.6
2022-08-09T01:45:59.828Z,1021.5
2022-08-09T01:47:09.000Z,1021.5
2022-08-09T01:48:18.183Z,1021.6
2022-08-09T01:49:27.354Z,1021.5
2022-08-09T01:50:36.595Z,1021.5
2022-08-09T01:51:45.707Z,1021.5
2022-08-09T01:52:54.862Z,1021.5
2022-08-09T01:54:03.054Z,1021.5
2022-08-09T01:55:12.234Z,1021.5
2022-08-09T01:56:21.403Z,1021.5
2022-08-09T01:57:30.585Z,1021.5
2022-08-09T01:58:39.745Z,1021.5
2022-08-09T01:59:48.919Z,1021.6
2022-08-09T02:00:58.098Z,1021.6
2022-08-09T02:02:07.269Z,1021.6
2022-08-09T02:03:16.428Z,1021.6
2022-08-09T02:04:25.610Z,1021.6
2022-08-09T02:05:34.780Z,1021.6
2022-08-09T02:06:43.946Z,1021.6
2022-08-09T02:07:53.123Z,1021.6
2022-08-09T02:09:02.291Z,1021.6
2022-08-09T02:10:10.515Z,1021.7
2022-08-09T02:11:19.655Z,1021.6
2022-08-09T02:12:28.827Z,1021.6
2022-08-09T02:13:38.002Z,1021.6
2022-08-09T02:14:47.166Z,1021.6
2022-08-09T02:15:56.351Z,1021.6
2022-08-09T02:17:05.509Z,1021.6
2022-08-09T02:18:14.687Z,1021.6
2022-08-09T02:19:23.871Z,1021.5
2022-08-09T02:20:33.042Z,1021.6
2022-08-09T02:21:42.224Z,1021.5
2022-08-09T02:22:51.397Z,1021.6
2022-08-09T02:24:00.549Z,1021.7
2022-08-09T02:25:08.735Z,1021.6
2022-08-09T02:26:17.916Z,1021.7
2022-08-09T02:27:27.088Z,1021.7
2022-08-09T02:28:36.257Z,1021.7
2022-08-09T02:29:45.438Z,1021.7
2022-08-09T02:30:54.605Z,1021.7
2022-08-09T02:32:03.772Z,1021.7
2022-08-09T02:33:12.937Z,1021.7
2022-08-09T02:34:22.108Z,1021.7
2022-08-09T02:35:31.293Z,1021.7
2022-08-09T02:36:40.454Z,1021.7
2022-08-09T02:37:49.632Z,1021.7
2022-08-09T02:38:58.821Z,1021.7
2022-08-09T02:40:06.997Z,1021.7
2022-08-09T02:41:16.176Z,1021.7
2022-08-09T02:42:25.341Z,1021.7
2022-08-09T02:43:34.520Z,1021.7
2022-08-09T02:44:43.703Z,1021.7
2022-08-09T02:45:52.864Z,1021.7
2022-08-09T02:47:02.037Z,1021.7
2022-08-09T02:48:11.201Z,1021.7
2022-08-09T02:49:20.368Z,1021.7
2022-08-09T02:50:29.534Z,1021.7
2022-08-09T02:51:38.710Z,1021.7
2022-08-09T02:52:47.893Z,1021.7
2022-08-09T02:53:57.054Z,1021.7
2022-08-09T02:55:05.289Z,1021.6
2022-08-09T02:56:14.424Z,1021.6
2022-08-09T02:57:23.597Z,1021.7
2022-08-09T02:58:31.777Z,1021.6
2022-08-09T02:59:40.952Z,1021.6
2022-08-09T03:00:50.128Z,1021.7
2022-08-09T03:01:59.304Z,1021.6
2022-08-09T03:03:08.471Z,1021.6
2022-08-09T03:04:17.644Z,1021.6
2022-08-09T03:05:26.814Z,1021.6
2022-08-09T03:06:35.983Z,1021.6
2022-08-09T03:07:45.173Z,1021.6
2022-08-09T03:08:54.336Z,1021.6
2022-08-09T03:10:03.512Z,1021.6
2022-08-09T03:11:12.677Z,1021.6
2022-08-09T03:12:21.853Z,1021.6
2022-08-09T03:13:30.049Z,1021.5
2022-08-09T03:14:39.216Z,1021.5
2022-08-09T03:15:48.388Z,1021.5
2022-08-09T03:16:57.547Z,1021.5
2022-08-09T03:18:06.728Z,1021.5
2022-08-09T03:19:15.902Z,1021.5
2022-08-09T03:20:25.079Z,1021.5
2022-08-09T03:21:34.249Z,1021.5
2022-08-09T03:22:43.421Z,1021.5
2022-08-09T03:23:52.582Z,1021.5
2022-08-09T03:25:01.765Z,1021.5
2022-08-09T03:26:10.930Z,1021.6
2022-08-09T03:27:20.101Z,1021.5
2022-08-09T03:28:28.305Z,1021.5
2022-08-09T03:29:37.462Z,1021.6
2022-08-09T03:30:46.634Z,1021.6
2022-08-09T03:31:55.805Z,1021.6
2022-08-09T03:33:04.980Z,1021.6
2022-08-09T03:34:14.156Z,1021.6
2022-08-09T03:35:23.328Z,1021.6
2022-08-09T03:36:32.495Z,1021.6
2022-08-09T03:37:41.673Z,1021.6
2022-08-09T03:38:50.843Z,1021.6
2022-08-09T03:40:00.007Z,1021.6
2022-08-09T03:41:09.189Z,1021.6
2022-08-09T03:42:18.354Z,1021.6
2022-08-09T03:43:26.547Z,1021.5
2022-08-09T03:45:44.901Z,1021.6
2022-08-09T03:46:54.059Z,1021.6
2022-08-09T03:48:03.242Z,1021.6
2022-08-09T03:49:12.415Z,1021.6
2022-08-09T03:50:21.584Z,1021.6
2022-08-09T03:51:30.751Z,1021.6
2022-08-09T03:52:39.925Z,1021.6
2022-08-09T03:53:49.103Z,1021.6
2022-08-09T03:54:58.260Z,1021.6
2022-08-09T03:56:07.446Z,1021.6
2022-08-09T03:57:16.613Z,1021.6
2022-08-09T03:58:24.806Z,1021.7
2022-08-09T03:59:33.977Z,1021.6
2022-08-09T04:00:43.137Z,1021.6
2022-08-09T04:01:52.321Z,1021.7
2022-08-09T04:03:01.487Z,1021.6
2022-08-09T04:04:10.674Z,1021.7
2022-08-09T04:05:19.840Z,1021.6
2022-08-09T04:06:29.010Z,1021.6
2022-08-09T04:07:38.171Z,1021.7
2022-08-09T04:08:47.364Z,1021.6
2022-08-09T04:09:56.525Z,1021.6
2022-08-09T04:11:05.704Z,1021.7
2022-08-09T04:12:14.863Z,1021.6
2022-08-09T04:13:24.053Z,1021.6
2022-08-09T04:14:33.209Z,1021.6
2022-08-09T04:15:42.389Z,1021.5
2022-08-09T04:16:51.564Z,1021.6
2022-08-09T04:17:59.745Z,1021.6
2022-08-09T04:19:08.919Z,1021.6
2022-08-09T04:21:27.257Z,1021.7
2022-08-09T04:22:36.440Z,1021.6
2022-08-09T04:23:45.618Z,1021.6
2022-08-09T04:24:54.777Z,1021.6
2022-08-09T04:26:03.962Z,1021.6
2022-08-09T04:27:13.129Z,1021.6
2022-08-09T04:28:22.293Z,1021.6
2022-08-09T04:29:31.471Z,1021.7
2022-08-09T04:30:40.646Z,1021.6
2022-08-09T04:31:49.808Z,1021.7
2022-08-09T04:32:58.007Z,1021.7
2022-08-09T04:34:07.183Z,1021.7
2022-08-09T04:35:16.345Z,1021.7
2022-08-09T04:36:25.524Z,1021.7
2022-08-09T04:37:34.685Z,1021.7
2022-08-09T04:38:43.865Z,1021.7
2022-08-09T04:39:53.043Z,1021.7
2022-08-09T04:41:02.221Z,1021.7
2022-08-09T04:42:11.381Z,1021.7
2022-08-09T04:43:20.555Z,1021.7
2022-08-09T04:44:29.731Z,1021.7
2022-08-09T04:45:38.902Z,1021.7
2022-08-09T04:46:48.076Z,1021.8
2022-08-09T04:47:56.256Z,1021.7
2022-08-09T04:49:05.433Z,1021.8
2022-08-09T04:50:14.616Z,1021.8
2022-08-09T04:51:23.781Z,1021.8
2022-08-09T04:52:32.953Z,1021.8
2022-08-09T04:53:42.120Z,1021.8
2022-08-09T04:54:51.288Z,1021.8
2022-08-09T04:56:00.456Z,1021.8
2022-08-09T04:57:09.643Z,1021.8
2022-08-09T04:58:18.823Z,1021.8
2022-08-09T04:59:27.990Z,1021.9
2022-08-09T05:00:37.151Z,1021.9
2022-08-09T05:01:46.332Z,1021.9
2022-08-09T05:02:55.499Z,1021.9
2022-08-09T05:04:03.694Z,1021.9
2022-08-09T05:05:12.857Z,1021.9
2022-08-09T05:06:22.032Z,1021.9
2022-08-09T05:07:31.216Z,1021.9
2022-08-09T05:08:40.383Z,1021.9
2022-08-09T05:09:49.538Z,1022
2022-08-09T05:10:58.719Z,1022
2022-08-09T05:12:07.893Z,1022
2022-08-09T05:13:17.064Z,1021.9
2022-08-09T05:14:26.238Z,1022
2022-08-09T05:15:35.420Z,1022
2022-08-09T05:16:44.579Z,1022
2022-08-09T05:17:53.765Z,1022
2022-08-09T05:19:01.944Z,1022
2022-08-09T05:20:11.108Z,1022
2022-08-09T05:21:20.287Z,1022
2022-08-09T05:22:29.470Z,1022.1
2022-08-09T05:23:38.637Z,1022
2022-08-09T05:24:47.811Z,1022.1
2022-08-09T05:25:56.980Z,1022
2022-08-09T05:27:06.148Z,1022
2022-08-09T05:28:15.323Z,1022
2022-08-09T05:29:24.498Z,1022
2022-08-09T05:30:33.667Z,1022
2022-08-09T05:31:42.848Z,1022
2022-08-09T05:32:52.026Z,1022
2022-08-09T05:34:00.200Z,1022
2022-08-09T05:35:09.379Z,1022
2022-08-09T05:36:18.540Z,1022
2022-08-09T05:37:27.725Z,1022
2022-08-09T05:38:36.903Z,1022
2022-08-09T05:39:46.076Z,1022
2022-08-09T05:40:55.236Z,1022
2022-08-09T05:42:04.405Z,1022
2022-08-09T05:43:13.583Z,1022
2022-08-09T05:44:22.760Z,1022
2022-08-09T05:45:31.932Z,1022
2022-08-09T05:46:41.101Z,1022
2022-08-09T05:47:50.273Z,1022
2022-08-09T05:48:58.469Z,1022
2022-08-09T05:50:07.641Z,1022
2022-08-09T05:51:16.810Z,1022
2022-08-09T05:52:25.976Z,1022
2022-08-09T05:53:35.153Z,1022
2022-08-09T05:54:44.336Z,1022
2022-08-09T05:55:53.502Z,1022
2022-08-09T05:57:02.671Z,1022
2022-08-09T05:58:11.852Z,1022.2
2022-08-09T05:59:21.030Z,1022.1
2022-08-09T06:00:30.191Z,1022.1
2022-08-09T06:01:39.366Z,1022.1
2022-08-09T06:03:57.700Z,1022.1
2022-08-09T06:05:05.890Z,1022.1
2022-08-09T06:06:15.075Z,1022.1
2022-08-09T06:07:24.239Z,1022.1
2022-08-09T06:08:33.409Z,1022.1
2022-08-09T06:09:42.589Z,1022.1
2022-08-09T06:10:51.752Z,1022.1
2022-08-09T06:12:00.918Z,1022.1
2022-08-09T06:13:10.103Z,1022.1
2022-08-09T06:14:19.311Z,1022.1
2022-08-09T06:15:28.458Z,1022.1
2022-08-09T06:16:37.614Z,1022.1
2022-08-09T06:17:46.786Z,1022.1
2022-08-09T06:18:55.967Z,1022.1
2022-08-09T06:20:04.161Z,1022.1
2022-08-09T06:21:13.325Z,1022.1
2022-08-09T06:22:22.491Z,1022.1
2022-08-09T06:23:31.659Z,1022.2
2022-08-09T06:24:40.847Z,1022.2
2022-08-09T06:25:50.009Z,1022.2
2022-08-09T06:26:59.186Z,1022.1
2022-08-09T06:28:08.349Z,1022.2
2022-08-09T06:29:17.537Z,1022.2
2022-08-09T06:30:26.709Z,1022.2
2022-08-09T06:31:35.868Z,1022.1
2022-08-09T06:32:45.055Z,1022.1
2022-08-09T06:33:54.215Z,1022.1
2022-08-09T06:35:02.408Z,1022.1
2022-08-09T06:36:11.580Z,1022.2
2022-08-09T06:37:20.755Z,1022.2
2022-08-09T06:38:29.919Z,1022.2
2022-08-09T06:39:39.106Z,1022.2
2022-08-09T06:40:48.272Z,1022.2
2022-08-09T06:41:57.445Z,1022.2
2022-08-09T06:43:06.613Z,1022.3
2022-08-09T06:44:15.791Z,1022.3
2022-08-09T06:45:24.955Z,1022.3
2022-08-09T06:46:34.132Z,1022.2
2022-08-09T06:47:43.304Z,1022.2
2022-08-09T06:48:52.482Z,1022.3
2022-08-09T06:50:01.657Z,1022.3
2022-08-09T06:51:10.832Z,1022.3
2022-08-09T06:52:19.017Z,1022.3
2022-08-09T06:53:28.198Z,1022.3
2022-08-09T06:54:37.361Z,1022.3
2022-08-09T06:55:46.533Z,1022.3
2022-08-09T06:56:55.704Z,1022.3
2022-08-09T06:58:04.887Z,1022.3
2022-08-09T06:59:14.053Z,1022.3
2022-08-09T07:00:23.219Z,1022.2
2022-08-09T07:01:32.386Z,1022.2
2022-08-09T07:02:41.576Z,1022.2
2022-08-09T07:03:50.736Z,1022.2
2022-08-09T07:04:59.904Z,1022.2
2022-08-09T07:06:09.076Z,1022.3
2022-08-09T07:07:17.262Z,1022.2
2022-08-09T07:08:26.445Z,1022.3
2022-08-09T07:09:35.611Z,1022.3
2022-08-09T07:10:44.786Z,1022.3
2022-08-09T07:11:53.956Z,1022.2
2022-08-09T07:13:03.133Z,1022.2
2022-08-09T07:14:12.312Z,1022.2
2022-08-09T07:15:21.477Z,1022.3
2022-08-09T07:16:30.646Z,1022.3
2022-08-09T07:17:39.818Z,1022.3
2022-08-09T07:18:48.994Z,1022.3
2022-08-09T07:19:58.158Z,1022.3
2022-08-09T07:21:07.334Z,1022.3
2022-08-09T07:22:16.518Z,1022.3
2022-08-09T07:23:24.697Z,1022.3
2022-08-09T07:24:33.873Z,1022.3
2022-08-09T07:25:43.048Z,1022.3
2022-08-09T07:26:52.222Z,1022.3
2022-08-09T07:28:01.388Z,1022.3
2022-08-09T07:29:10.570Z,1022.3
2022-08-09T07:30:19.730Z,1022.3
2022-08-09T07:31:28.899Z,1022.3
2022-08-09T07:32:38.087Z,1022.4
2022-08-09T07:33:47.259Z,1022.3
2022-08-09T07:34:56.429Z,1022.3
2022-08-09T07:36:05.601Z,1022.3
2022-08-09T07:37:14.768Z,1022.3
2022-08-09T07:38:22.949Z,1022.3
2022-08-09T07:39:32.132Z,1022.3
2022-08-09T07:40:41.327Z,1022.4
2022-08-09T07:41:50.491Z,1022.4
2022-08-09T07:42:59.655Z,1022.4
2022-08-09T07:44:08.821Z,1022.5
2022-08-09T07:45:18.015Z,1022.4
2022-08-09T07:46:27.172Z,1022.4
2022-08-09T07:47:36.342Z,1022.5
2022-08-09T07:48:45.508Z,1022.4
2022-08-09T07:49:54.684Z,1022.4
2022-08-09T07:51:03.861Z,1022.4
2022-08-09T07:52:13.029Z,1022.4
2022-08-09T07:53:21.222Z,1022.4
2022-08-09T07:54:30.399Z,1022.4
2022-08-09T07:55:39.568Z,1022.3
2022-08-09T07:56:48.748Z,1022.3
2022-08-09T07:57:57.904Z,1022.3
2022-08-09T07:59:07.086Z,1022.3
2022-08-09T08:00:16.254Z,1022.4
2022-08-09T08:01:25.444Z,1022.3
2022-08-09T08:02:34.598Z,1022.3
2022-08-09T08:03:43.787Z,1022.3
2022-08-09T08:04:52.940Z,1022.3
2022-08-09T08:06:02.111Z,1022.3
2022-08-09T08:07:11.290Z,1022.3
2022-08-09T08:08:19.484Z,1022.3
2022-08-09T08:09:28.646Z,1022.3
2022-08-09T08:10:37.816Z,1022.3
2022-08-09T08:11:46.985Z,1022.3
2022-08-09T08:12:56.170Z,1022.3
2022-08-09T08:14:05.339Z,1022.4
2022-08-09T08:15:14.522Z,1022.3
2022-08-09T08:16:23.687Z,1022.4
2022-08-09T08:17:32.850Z,1022.4
2022-08-09T08:18:42.023Z,1022.4
2022-08-09T08:19:51.206Z,1022.3
2022-08-09T08:21:00.376Z,1022.4
2022-08-09T08:22:09.541Z,1022.3
2022-08-09T08:23:17.724Z,1022.3
2022-08-09T08:24:26.901Z,1022.3
2022-08-09T08:25:36.080Z,1022.4
2022-08-09T08:26:45.237Z,1022.4
2022-08-09T08:27:54.426Z,1022.4
2022-08-09T08:29:03.593Z,1022.3
2022-08-09T08:30:12.769Z,1022.3
2022-08-09T08:31:21.942Z,1022.3
2022-08-09T08:32:31.123Z,1022.3
2022-08-09T08:33:40.280Z,1022.3
2022-08-09T08:34:49.469Z,1022.4
2022-08-09T08:35:58.633Z,1022.4
2022-08-09T08:37:07.802Z,1022.4
2022-08-09T08:38:15.997Z,1022.4
2022-08-09T08:39:25.158Z,1022.4
2022-08-09T08:40:34.341Z,1022.4
2022-08-09T08:41:43.509Z,1022.4
2022-08-09T08:42:52.683Z,1022.3
2022-08-09T08:44:01.851Z,1022.3
2022-08-09T08:45:11.023Z,1022.3
2022-08-09T08:46:20.205Z,1022.3
2022-08-09T08:47:29.388Z,1022.4
2022-08-09T08:48:38.544Z,1022.3
2022-08-09T08:49:47.713Z,1022.4
2022-08-09T08:50:56.881Z,1022.4
2022-08-09T08:52:06.055Z,1022.4
2022-08-09T08:53:14.253Z,1022.4
2022-08-09T08:54:23.423Z,1022.4
2022-08-09T08:55:32.603Z,1022.4
2022-08-09T08:56:41.772Z,1022.4
2022-08-09T08:57:50.936Z,1022.4
2022-08-09T08:59:00.117Z,1022.4
2022-08-09T09:00:09.292Z,1022.4
2022-08-09T09:01:18.469Z,1022.4
2022-08-09T09:02:27.635Z,1022.4
2022-08-09T09:03:36.799Z,1022.4
2022-08-09T09:04:45.978Z,1022.4
2022-08-09T09:05:55.159Z,1022.4
2022-08-09T09:07:04.317Z,1022.4
2022-08-09T09:08:12.503Z,1022.4
2022-08-09T09:09:21.680Z,1022.3
2022-08-09T09:10:30.850Z,1022.4
2022-08-09T09:11:40.019Z,1022.3
2022-08-09T09:12:49.200Z,1022.4
2022-08-09T09:13:58.377Z,1022.4
2022-08-09T09:15:07.544Z,1022.3
2022-08-09T09:16:16.714Z,1022.3
2022-08-09T09:17:25.888Z,1022.4
2022-08-09T09:18:35.055Z,1022.4
2022-08-09T09:19:44.230Z,1022.4
2022-08-09T09:20:53.399Z,1022.4
2022-08-09T09:22:02.586Z,1022.4
2022-08-09T09:23:11.780Z,1022.4
2022-08-09T09:24:19.943Z,1022.4
2022-08-09T09:25:29.102Z,1022.4
2022-08-09T09:26:38.282Z,1022.4
2022-08-09T09:27:47.460Z,1022.4
2022-08-09T09:28:56.661Z,1022.4
2022-08-09T09:30:05.806Z,1022.4
2022-08-09T09:31:14.972Z,1022.4
2022-08-09T09:32:24.142Z,1022.5
2022-08-09T09:33:33.317Z,1022.4
2022-08-09T09:34:42.497Z,1022.4
2022-08-09T09:35:51.656Z,1022.4
2022-08-09T09:37:00.843Z,1022.4
2022-08-09T09:39:19.174Z,1022.5
2022-08-09T09:40:27.376Z,1022.4
2022-08-09T09:41:36.546Z,1022.4
2022-08-09T09:42:45.706Z,1022.4
2022-08-09T09:43:54.887Z,1022.4
2022-08-09T09:45:04.061Z,1022.5
2022-08-09T09:46:13.235Z,1022.4
2022-08-09T09:47:22.401Z,1022.5
2022-08-09T09:48:31.569Z,1022.5
2022-08-09T09:49:40.736Z,1022.4
2022-08-09T09:50:49.925Z,1022.4
2022-08-09T09:51:59.105Z,1022.3
2022-08-09T09:53:08.264Z,1022.4
2022-08-09T09:54:17.451Z,1022.3
2022-08-09T09:55:25.628Z,1022.4
2022-08-09T09:56:34.788Z,1022.3
2022-08-09T09:57:43.970Z,1022.3
2022-08-09T09:58:53.153Z,1022.3
2022-08-09T10:00:02.303Z,1022.3
2022-08-09T10:01:11.488Z,1022.3
2022-08-09T10:02:20.677Z,1022.3
2022-08-09T10:03:29.838Z,1022.2
2022-08-09T10:04:38.995Z,1022.3
2022-08-09T10:05:48.167Z,1022.3
2022-08-09T10:06:57.357Z,1022.3
2022-08-09T10:08:06.528Z,1022.3
2022-08-09T10:09:15.696Z,1022.3
2022-08-09T10:10:23.887Z,1022.3
2022-08-09T10:11:33.059Z,1022.4
2022-08-09T10:12:42.237Z,1022.3
2022-08-09T10:13:51.404Z,1022.4
2022-08-09T10:15:00.571Z,1022.3
2022-08-09T10:16:09.759Z,1022.3
2022-08-09T10:17:18.934Z,1022.3
2022-08-09T10:18:28.091Z,1022.3
2022-08-09T10:19:37.263Z,1022.3
2022-08-09T10:20:46.444Z,1022.3
2022-08-09T10:21:55.614Z,1022.3
2022-08-09T10:23:04.794Z,1022.3
2022-08-09T10:24:13.956Z,1022.3
2022-08-09T10:25:22.149Z,1022.2
2022-08-09T10:26:31.312Z,1022.3
2022-08-09T10:27:40.490Z,1022.3
2022-08-09T10:28:49.676Z,1022.3
2022-08-09T10:29:58.837Z,1022.3
2022-08-09T10:31:08.015Z,1022.3
2022-08-09T10:32:17.184Z,1022.2
2022-08-09T10:33:26.350Z,1022.2
2022-08-09T10:34:35.523Z,1022.3
2022-08-09T10:35:44.711Z,1022.3
2022-08-09T10:36:53.870Z,1022.3
2022-08-09T10:38:03.041Z,1022.3
2022-08-09T10:39:12.216Z,1022.4
2022-08-09T10:40:20.405Z,1022.3
2022-08-09T10:41:29.578Z,1022.3
2022-08-09T10:42:38.749Z,1022.4
2022-08-09T10:43:46.949Z,1022.3
2022-08-09T10:44:56.121Z,1022.3
2022-08-09T10:46:05.292Z,1022.4
2022-08-09T10:47:14.460Z,1022.3
2022-08-09T10:48:23.623Z,1022.3
2022-08-09T10:49:32.814Z,1022.3
2022-08-09T10:50:41.974Z,1022.2
2022-08-09T10:51:51.148Z,1022.3
2022-08-09T10:53:00.326Z,1022.3
2022-08-09T10:54:09.499Z,1022.3
2022-08-09T10:55:18.661Z,1022.3
2022-08-09T10:56:27.856Z,1022.3
2022-08-09T10:57:37.012Z,1022.3
2022-08-09T10:58:45.210Z,1022.3
2022-08-09T10:59:54.380Z,1022.2
2022-08-09T11:01:03.557Z,1022.2
2022-08-09T11:02:12.718Z,1022.2
2022-08-09T11:03:21.898Z,1022.3
2022-08-09T11:04:31.065Z,1022.3
2022-08-09T11:05:40.223Z,1022.3
2022-08-09T11:06:49.410Z,1022.3
2022-08-09T11:07:58.595Z,1022.2
2022-08-09T11:09:07.759Z,1022.2
2022-08-09T11:10:16.922Z,1022.2
2022-08-09T11:11:26.094Z,1022.2
2022-08-09T11:12:35.264Z,1022.3
2022-08-09T11:13:43.449Z,1022.2
2022-08-09T11:14:52.632Z,1022.2
2022-08-09T11:16:01.803Z,1022.2
2022-08-09T11:17:10.985Z,1022.2
2022-08-09T11:18:20.149Z,1022.2
2022-08-09T11:19:29.335Z,1022.2
2022-08-09T11:20:38.500Z,1022.2
2022-08-09T11:21:47.669Z,1022.2
2022-08-09T11:22:56.848Z,1022.2
2022-08-09T11:24:06.009Z,1022.2
2022-08-09T11:25:15.205Z,1022.2
2022-08-09T11:26:24.360Z,1022.2
2022-08-09T11:27:33.545Z,1022.2
2022-08-09T11:28:41.728Z,1022.2
2022-08-09T11:29:50.898Z,1022
2022-08-09T11:31:00.099Z,1022.1
2022-08-09T11:32:09.241Z,1022.1
2022-08-09T11:33:18.413Z,1022.1
2022-08-09T11:34:27.591Z,1022.1
2022-08-09T11:35:36.761Z,1022.1
2022-08-09T11:36:45.931Z,1022.1
2022-08-09T11:37:55.096Z,1022.1
2022-08-09T11:39:04.293Z,1022
2022-08-09T11:40:13.461Z,1022
2022-08-09T11:41:22.628Z,1022.1
2022-08-09T11:42:31.794Z,1022
2022-08-09T11:43:39.985Z,1022
2022-08-09T11:44:49.173Z,1021.9
2022-08-09T11:45:58.326Z,1021.9
2022-08-09T11:47:07.518Z,1021.9
2022-08-09T11:48:16.675Z,1021.9
2022-08-09T11:49:25.848Z,1021.8
2022-08-09T11:50:35.021Z,1021.9
2022-08-09T11:51:44.196Z,1021.9
2022-08-09T11:52:53.372Z,1021.8
2022-08-09T11:54:02.536Z,1021.9
2022-08-09T11:55:11.744Z,1021.8
2022-08-09T11:56:20.884Z,1021.9
2022-08-09T11:57:30.075Z,1021.9
2022-08-09T11:58:38.263Z,1021.9
2022-08-09T11:59:47.425Z,1021.9
2022-08-09T12:00:56.589Z,1021.9
2022-08-09T12:02:05.772Z,1021.9
2022-08-09T12:03:14.945Z,1021.9
2022-08-09T12:04:24.122Z,1021.9
2022-08-09T12:05:33.282Z,1021.9
2022-08-09T12:06:42.470Z,1021.9
2022-08-09T12:07:51.629Z,1021.8
2022-08-09T12:09:00.794Z,1021.8
2022-08-09T12:10:09.966Z,1021.8
2022-08-09T12:11:19.142Z,1021.8
2022-08-09T12:12:28.323Z,1021.7
2022-08-09T12:13:36.514Z,1021.8
2022-08-09T12:14:45.685Z,1021.8
2022-08-09T12:15:54.857Z,1021.8
2022-08-09T12:17:04.027Z,1021.8
2022-08-09T12:18:13.199Z,1021.7
2022-08-09T12:19:22.374Z,1021.7
2022-08-09T12:20:31.540Z,1021.7
2022-08-09T12:21:40.728Z,1021.8
2022-08-09T12:22:49.902Z,1021.8
2022-08-09T12:23:59.071Z,1021.8
2022-08-09T12:25:08.250Z,1021.7
2022-08-09T12:26:17.407Z,1021.7
2022-08-09T12:27:26.586Z,1021.7
2022-08-09T12:28:35.753Z,1021.7
2022-08-09T12:29:43.948Z,1021.6
2022-08-09T12:30:53.125Z,1021.6
2022-08-09T12:32:02.306Z,1021.7
2022-08-09T12:33:11.462Z,1021.7
2022-08-09T12:34:20.641Z,1021.7
2022-08-09T12:35:29.807Z,1021.6
2022-08-09T12:36:38.986Z,1021.6
2022-08-09T12:37:48.150Z,1021.6
2022-08-09T12:38:57.329Z,1021.6
2022-08-09T12:40:06.501Z,1021.6
2022-08-09T12:41:15.670Z,1021.6
2022-08-09T12:42:24.843Z,1021.6
2022-08-09T12:43:34.031Z,1021.6
2022-08-09T12:44:43.187Z,1021.5
2022-08-09T12:45:52.360Z,1021.6
2022-08-09T12:47:00.546Z,1021.5
2022-08-09T12:48:09.733Z,1021.6
2022-08-09T12:49:18.887Z,1021.5
2022-08-09T12:50:28.071Z,1021.4
2022-08-09T12:51:37.255Z,1021.6
2022-08-09T12:52:46.414Z,1021.5
2022-08-09T12:53:55.597Z,1021.5
2022-08-09T12:55:04.789Z,1021.5
2022-08-09T12:56:13.932Z,1021.4
2022-08-09T12:57:23.096Z,1021.5
2022-08-09T12:58:32.281Z,1021.4
2022-08-09T12:59:41.446Z,1021.4
2022-08-09T13:00:50.623Z,1021.5
2022-08-09T13:01:58.817Z,1021.4
2022-08-09T13:03:07.989Z,1021.5
2022-08-09T13:04:17.151Z,1021.4
2022-08-09T13:05:26.320Z,1021.3
2022-08-09T13:06:35.506Z,1021.3
2022-08-09T13:07:44.671Z,1021.4
2022-08-09T13:08:53.843Z,1021.3
2022-08-09T13:10:03.017Z,1021.3
2022-08-09T13:11:12.206Z,1021.3
2022-08-09T13:12:21.362Z,1021.2
2022-08-09T13:13:30.541Z,1021.3
2022-08-09T13:14:39.719Z,1021.2
2022-08-09T13:15:48.892Z,1021.3
2022-08-09T13:16:58.041Z,1021.3
2022-08-09T13:18:06.241Z,1021.2
2022-08-09T13:19:15.431Z,1021.3
2022-08-09T13:20:24.599Z,1021.2
2022-08-09T13:21:33.764Z,1021.2
2022-08-09T13:22:42.942Z,1021.2
2022-08-09T13:23:52.121Z,1021.2
2022-08-09T13:25:01.291Z,1021.2
2022-08-09T13:26:10.460Z,1021.2
2022-08-09T13:27:19.628Z,1021.2
2022-08-09T13:29:37.971Z,1021.1
2022-08-09T13:30:47.139Z,1021.2
2022-08-09T13:31:56.326Z,1021.2
2022-08-09T13:33:04.497Z,1021.2
2022-08-09T13:34:13.681Z,1021.1
2022-08-09T13:35:22.857Z,1021.1
2022-08-09T13:36:32.042Z,1021.1
2022-08-09T13:39:59.545Z,1021.1
2022-08-09T13:41:07.741Z,1021.1
2022-08-09T13:42:15.942Z,1021.1
2022-08-09T13:43:25.107Z,1021.2
2022-08-09T13:44:34.278Z,1021.2
2022-08-09T13:45:43.443Z,1021.2
2022-08-09T13:46:52.616Z,1021.1
2022-08-09T13:48:01.785Z,1021.1
2022-08-09T13:49:10.968Z,1021.1
2022-08-09T13:50:20.140Z,1021.1
2022-08-09T13:51:29.303Z,1021.1
2022-08-09T13:52:38.489Z,1021.1
2022-08-09T13:53:46.675Z,1021.1
2022-08-09T13:54:58.638Z,1021.2
2022-08-09T13:56:04.037Z,1021.1
2022-08-09T13:57:13.209Z,1021.1
2022-08-09T13:58:22.374Z,1021
2022-08-09T13:59:31.563Z,1021
2022-08-09T14:00:40.735Z,1021
2022-08-09T14:01:49.905Z,1021
2022-08-09T14:02:59.085Z,1021
2022-08-09T14:04:08.243Z,1021
2022-08-09T14:05:17.412Z,1021
2022-08-09T14:06:26.578Z,1021
2022-08-09T14:07:35.769Z,1021
2022-08-09T14:08:44.926Z,1021
2022-08-09T14:09:53.123Z,1021
2022-08-09T14:11:02.295Z,1020.9
2022-08-09T14:12:11.473Z,1021
2022-08-09T14:13:20.647Z,1021
2022-08-09T14:14:29.817Z,1021
2022-08-09T14:15:38.990Z,1020.9
2022-08-09T14:16:48.178Z,1020.9
2022-08-09T14:17:57.340Z,1021
2022-08-09T14:19:06.511Z,1021
2022-08-09T14:20:15.673Z,1021
2022-08-09T14:21:24.852Z,1020.9
2022-08-09T14:22:34.024Z,1021
2022-08-09T14:23:43.196Z,1020.9
2022-08-09T14:24:51.391Z,1021
2022-08-09T14:25:59.582Z,1021
2022-08-09T14:27:07.779Z,1020.9
2022-08-09T14:28:16.946Z,1020.9
2022-08-09T14:29:26.118Z,1020.9
2022-08-09T14:30:35.288Z,1020.9
2022-08-09T14:31:44.474Z,1020.9
2022-08-09T14:32:52.659Z,1020.9
2022-08-09T14:34:00.848Z,1020.9
2022-08-09T14:35:09.040Z,1020.9
2022-08-09T14:36:18.219Z,1020.8